Terminal Aerodrome Forecast
Issued by NWS

Home | Current Version | Previous Version | Graphics & Text | Print | Product List | Glossary On
Versions: 1 2 3 4 5 6 7 8 9 10 11 12 13 14 15 16 17 18
000
FTUS43 KMPX 230520
TAFRWF
TAF
KRWF 230520Z 2306/2406 11004KT P6SM OVC200
     FM230900 12007KT P6SM VCTS BKN090CB
      TEMPO 2312/2316 3SM TSRA BKN035CB
     FM231600 16012G18KT P6SM SCT020 BKN110
      TEMPO 2323/2403 3SM TSRA BKN035CB
     FM240300 22007KT P6SM SCT040 BKN070=

USA.gov is the U.S. government's official web portal to all federal, state and local government web resources and services.